Time;durP1;ratioP1;P1;durP2;ratioP2;P2;SDS_P1;SDS_P2;PMS_P1;PMS_P2;Temp;Humidity;BMP_temperature;BMP_pressure;BME280_temperature;BME280_humidity;BME280_pressure;Samples;Min_cycle;Max_cycle;Signal;HPM_P1;HPM_P2
2023/03/16 00:01:32;;;;;;;19.30;10.43;;;;;;;0.28;100.00;100908.69;5000731;28;20073;-90
2023/03/16 00:04:21;;;;;;;18.27;10.82;;;;;;;0.55;100.00;100964.31;4998974;28;20031;-91
2023/03/16 00:06:51;;;;;;;20.65;10.25;;;;;;;0.50;100.00;100958.22;5007507;28;20030;-90
2023/03/16 00:09:39;;;;;;;21.17;10.52;;;;;;;0.32;100.00;100939.06;4986712;28;20044;-92
2023/03/16 00:12:20;;;;;;;17.17;10.50;;;;;;;0.43;100.00;100965.16;4995236;28;20035;-92
2023/03/16 00:15:03;;;;;;;19.83;10.80;;;;;;;0.43;100.00;100962.56;5000494;28;20038;-91
2023/03/16 00:17:56;;;;;;;14.85;9.75;;;;;;;0.49;100.00;100965.16;5014640;28;20034;-92
2023/03/16 00:20:41;;;;;;;16.10;10.10;;;;;;;0.49;100.00;100949.53;5003829;28;20061;-92
2023/03/16 00:23:49;;;;;;;15.38;9.98;;;;;;;0.55;100.00;100946.09;5003935;28;20036;-91
2023/03/16 00:26:26;;;;;;;17.65;10.63;;;;;;;0.47;100.00;100922.63;4987878;28;20039;-92
2023/03/16 00:29:10;;;;;;;22.02;9.98;;;;;;;0.60;100.00;100950.44;4974561;28;20079;-91
2023/03/16 00:31:48;;;;;;;13.70;10.00;;;;;;;0.58;100.00;100949.56;4987156;28;20047;-91
2023/03/16 00:34:33;;;;;;;17.23;10.23;;;;;;;0.54;100.00;100929.56;5002744;28;20038;-91
2023/03/16 00:37:43;;;;;;;19.20;10.55;;;;;;;0.64;100.00;100933.94;4990660;28;20499;-93
2023/03/16 00:40:29;;;;;;;15.90;9.90;;;;;;;0.75;100.00;100931.38;4992508;28;20136;-92
2023/03/16 00:43:00;;;;;;;19.58;10.52;;;;;;;0.64;100.00;100912.22;5004612;28;20081;-91
2023/03/16 00:45:37;;;;;;;18.23;10.13;;;;;;;0.69;100.00;100932.22;5005009;28;20069;-92
2023/03/16 00:48:10;;;;;;;17.77;10.23;;;;;;;0.21;100.00;100862.63;5001537;28;20115;-93
2023/03/16 00:50:56;;;;;;;19.00;10.43;;;;;;;0.50;100.00;100933.03;4995654;28;20050;-92
2023/03/16 00:53:30;;;;;;;15.68;9.75;;;;;;;0.52;100.00;100933.03;4996575;28;20038;-92
2023/03/16 00:56:08;;;;;;;16.17;9.93;;;;;;;0.24;100.00;100887.81;4971202;28;20054;-91
2023/03/16 00:59:01;;;;;;;17.33;11.18;;;;;;;0.42;100.00;100928.69;5003220;28;20479;-91
2023/03/16 01:01:32;;;;;;;21.08;10.57;;;;;;;0.15;100.00;100896.50;4994332;28;20034;-91
2023/03/16 01:04:19;;;;;;;18.50;10.82;;;;;;;0.23;100.00;100925.16;4998598;28;20042;-91
2023/03/16 01:06:49;;;;;;;20.58;10.82;;;;;;;0.14;100.00;100920.78;5008719;28;20090;-89
2023/03/16 01:09:35;;;;;;;17.40;10.23;;;;;;;0.03;100.00;100909.44;4996839;28;20034;-92
2023/03/16 01:12:09;;;;;;;17.73;10.70;;;;;;;0.12;100.00;100926.84;4987865;28;20042;-90
2023/03/16 01:14:38;;;;;;;21.42;10.95;;;;;;;-0.15;100.00;100906.75;4991104;28;20043;-92
2023/03/16 01:17:19;;;;;;;16.58;9.75;;;;;;;-0.32;100.00;100879.81;4992607;28;20073;-92
2023/03/16 01:19:50;;;;;;;19.50;10.98;;;;;;;0.00;100.00;100938.94;5009954;28;20044;-91
2023/03/16 01:22:18;;;;;;;20.80;10.93;;;;;;;-0.02;100.00;100947.63;4974859;28;20395;-90
2023/03/16 01:24:45;;;;;;;19.35;11.18;;;;;;;-0.14;100.00;100926.72;4969439;28;20043;-89
2023/03/16 01:27:17;;;;;;;18.80;10.75;;;;;;;-0.06;100.00;100938.06;5005887;28;20070;-91
2023/03/16 01:29:59;;;;;;;19.85;10.07;;;;;;;-0.44;100.00;100873.66;4975654;28;20038;-90
2023/03/16 01:32:25;;;;;;;18.08;10.10;;;;;;;-0.22;100.00;100915.41;5041325;22;20170;-90
2023/03/16 01:35:20;;;;;;;16.92;9.55;;;;;;;-0.25;100.00;100920.59;4980382;28;20047;-90
2023/03/16 01:37:53;;;;;;;17.30;10.48;;;;;;;-0.70;100.00;100857.03;4961882;28;20049;-91
2023/03/16 01:40:36;;;;;;;20.75;10.95;;;;;;;-0.59;100.00;100883.09;4977166;28;20043;-91
2023/03/16 01:43:12;;;;;;;22.08;11.35;;;;;;;-0.85;100.00;100839.63;4986015;28;20133;-93
2023/03/16 01:46:14;;;;;;;19.08;10.95;;;;;;;-0.36;100.00;100905.81;4970619;28;20069;-93
2023/03/16 01:49:04;;;;;;;24.02;11.63;;;;;;;-0.69;100.00;100845.78;4981376;28;20051;-93
2023/03/16 01:52:01;;;;;;;22.80;11.27;;;;;;;-0.65;100.00;100852.75;4964802;28;20042;-91
2023/03/16 01:54:32;;;;;;;19.38;11.10;;;;;;;-0.58;100.00;100859.72;4974154;28;20038;-90
2023/03/16 01:57:20;;;;;;;19.42;11.10;;;;;;;-0.33;100.00;100904.97;4977622;28;20408;-90
2023/03/16 01:59:56;;;;;;;18.08;10.90;;;;;;;-0.59;100.00;100850.16;4967813;28;20061;-92
2023/03/16 02:03:06;;;;;;;21.83;11.25;;;;;;;-0.29;100.00;100892.81;4975088;28;20102;-91
2023/03/16 02:05:53;;;;;;;20.70;11.65;;;;;;;-0.44;100.00;100852.84;4971964;28;20039;-91
2023/03/16 02:08:25;;;;;;;19.33;10.70;;;;;;;-0.20;100.00;100893.75;4982972;28;20133;-93
2023/03/16 02:10:55;;;;;;;18.60;11.43;;;;;;;-0.39;100.00;100855.47;4960490;28;20062;-91
2023/03/16 02:13:35;;;;;;;19.65;11.57;;;;;;;-0.16;100.00;100905.03;4965914;28;20049;-91
2023/03/16 02:16:18;;;;;;;19.05;11.75;;;;;;;-0.26;100.00;100885.91;4973711;28;20081;-91
2023/03/16 02:19:18;;;;;;;19.17;10.65;;;;;;;-0.21;100.00;100907.63;4968614;28;20043;-92
2023/03/16 02:22:07;;;;;;;23.92;12.02;;;;;;;-0.62;100.00;100836.25;4991054;28;20064;-93
2023/03/16 02:24:40;;;;;;;17.58;10.40;;;;;;;-0.22;100.00;100897.19;4980748;28;20054;-91
2023/03/16 02:27:40;;;;;;;19.40;11.13;;;;;;;-0.14;100.00;100888.53;4993708;28;20034;-90
2023/03/16 02:30:16;;;;;;;22.40;11.73;;;;;;;-0.16;100.00;100884.22;4992222;28;20051;-90
2023/03/16 02:32:58;;;;;;;18.48;10.63;;;;;;;-0.27;100.00;100868.53;4993917;28;20093;-92
2023/03/16 02:35:26;;;;;;;20.45;11.27;;;;;;;-0.69;100.00;100788.56;4930910;28;20046;-92
2023/03/16 02:37:58;;;;;;;19.05;11.68;;;;;;;-0.56;100.00;100816.38;5000786;28;20498;-91
2023/03/16 02:40:28;;;;;;;18.77;11.43;;;;;;;-0.23;100.00;100862.50;4966505;28;20047;-92
2023/03/16 02:43:18;;;;;;;21.40;11.60;;;;;;;-0.48;100.00;100812.09;4979670;28;20066;-92
2023/03/16 02:45:50;;;;;;;20.83;11.95;;;;;;;-0.37;100.00;100817.31;4979679;28;20068;-93
2023/03/16 02:48:51;;;;;;;20.83;11.32;;;;;;;-0.55;100.00;100781.69;5009119;28;20046;-92
2023/03/16 02:51:22;;;;;;;18.17;11.23;;;;;;;-0.72;100.00;100746.94;5004372;28;20114;-91
2023/03/16 02:53:49;;;;;;;18.67;11.18;;;;;;;-0.47;100.00;100805.13;4984346;28;20065;-91
2023/03/16 02:56:24;;;;;;;18.45;11.63;;;;;;;-0.52;100.00;100806.84;4994439;28;20089;-91
2023/03/16 02:58:58;;;;;;;19.92;11.82;;;;;;;-0.24;100.00;100841.66;4982275;28;20092;-92
2023/03/16 03:01:43;;;;;;;17.67;11.07;;;;;;;-0.18;100.00;100845.16;4981091;28;20053;-92
2023/03/16 03:04:11;;;;;;;18.40;11.55;;;;;;;-0.85;100.00;100745.16;4998554;28;20053;-92
2023/03/16 03:06:43;;;;;;;20.48;11.70;;;;;;;-0.35;100.00;100833.81;4975699;28;20046;-91
2023/03/16 03:09:19;;;;;;;17.00;11.18;;;;;;;-0.67;100.00;100786.84;4996140;28;20188;-91
2023/03/16 03:11:57;;;;;;;19.33;11.80;;;;;;;-0.54;100.00;100809.44;4971170;28;20073;-93
2023/03/16 03:14:27;;;;;;;19.05;11.73;;;;;;;-0.58;100.00;100802.47;4985962;28;20107;-91
2023/03/16 03:17:13;;;;;;;17.60;11.10;;;;;;;-0.69;100.00;100791.16;4981024;28;20117;-92
2023/03/16 03:19:51;;;;;;;17.67;10.82;;;;;;;-0.91;100.00;100734.72;4997964;28;20042;-91
2023/03/16 03:22:25;;;;;;;19.63;10.82;;;;;;;-0.54;100.00;100788.63;4997068;28;20118;-92
2023/03/16 03:24:58;;;;;;;18.90;10.60;;;;;;;-0.68;100.00;100772.09;4995585;28;20070;-91
2023/03/16 03:27:32;;;;;;;19.98;10.93;;;;;;;-0.64;100.00;100794.69;4998716;28;20038;-92
2023/03/16 03:30:14;;;;;;;21.35;11.65;;;;;;;-0.33;100.00;100845.09;5011088;28;20043;-92
2023/03/16 03:32:48;;;;;;;17.52;10.15;;;;;;;-0.27;100.00;100845.13;5008303;28;20118;-91
2023/03/16 03:35:32;;;;;;;19.65;10.48;;;;;;;-0.26;100.00;100838.19;4995931;28;20082;-91
2023/03/16 03:38:00;;;;;;;20.25;11.20;;;;;;;-0.33;100.00;100823.41;4994528;28;20058;-92
2023/03/16 03:40:36;;;;;;;20.52;11.13;;;;;;;-0.34;100.00;100839.91;4995011;28;20110;-91
2023/03/16 03:43:12;;;;;;;19.38;11.20;;;;;;;-0.37;100.00;100843.34;4994873;28;20104;-92
2023/03/16 03:45:59;;;;;;;21.33;10.90;;;;;;;-0.53;100.00;100821.59;4989487;28;20089;-92
2023/03/16 03:48:32;;;;;;;19.77;9.73;;;;;;;-0.67;100.00;100789.44;4993920;28;20070;-91
2023/03/16 03:51:16;;;;;;;18.33;10.23;;;;;;;-0.45;100.00;100819.00;5011329;28;20050;-93
2023/03/16 03:53:55;;;;;;;16.60;9.75;;;;;;;-0.43;100.00;100804.28;4995170;28;20057;-95
2023/03/16 03:56:25;;;;;;;18.25;9.93;;;;;;;-0.17;100.00;100846.03;5006863;28;20135;-94
2023/03/16 03:59:07;;;;;;;19.90;10.02;;;;;;;-0.32;100.00;100825.16;5002781;28;20590;-93
2023/03/16 04:02:03;;;;;;;17.27;10.15;;;;;;;-0.20;100.00;100846.91;4983589;28;20046;-93
2023/03/16 04:04:45;;;;;;;19.05;9.85;;;;;;;-0.34;100.00;100842.50;4983766;28;20468;-92
2023/03/16 04:07:17;;;;;;;18.42;9.75;;;;;;;-0.48;100.00;100825.09;4968702;28;20411;-92
2023/03/16 04:09:56;;;;;;;16.60;9.35;;;;;;;-0.41;100.00;100837.25;4974699;28;20097;-92
2023/03/16 04:12:31;;;;;;;16.42;9.73;;;;;;;-0.39;100.00;100832.06;4986786;28;20042;-90
2023/03/16 04:15:06;;;;;;;17.73;9.02;;;;;;;-0.33;100.00;100836.44;5004030;28;20070;-92
2023/03/16 04:17:42;;;;;;;16.02;9.57;;;;;;;-0.41;100.00;100826.84;4997941;28;20108;-90
2023/03/16 04:20:18;;;;;;;18.33;9.57;;;;;;;-0.27;100.00;100842.50;5010368;28;20045;-90
2023/03/16 04:22:46;;;;;;;19.10;9.60;;;;;;;-0.27;100.00;100837.31;4978521;28;20077;-90
2023/03/16 04:25:18;;;;;;;15.25;9.48;;;;;;;-0.24;100.00;100824.31;4992564;28;20034;-91
2023/03/16 04:27:50;;;;;;;17.90;9.00;;;;;;;-0.15;100.00;100820.84;5002140;28;20117;-92
2023/03/16 04:30:24;;;;;;;17.45;9.93;;;;;;;-0.64;100.00;100733.97;4994438;28;20061;-90
2023/03/16 04:33:05;;;;;;;15.00;8.52;;;;;;;-0.37;100.00;100773.97;4969515;28;20062;-92
2023/03/16 04:35:41;;;;;;;14.82;9.48;;;;;;;-0.19;100.00;100800.91;4979805;28;20035;-92
2023/03/16 04:38:11;;;;;;;19.13;10.48;;;;;;;-0.22;100.00;100804.38;4982329;28;20056;-91
2023/03/16 04:40:42;;;;;;;16.83;9.90;;;;;;;-0.26;100.00;100796.53;5002330;28;20058;-93
2023/03/16 04:43:13;;;;;;;16.35;9.20;;;;;;;-0.19;100.00;100798.31;5001462;28;20141;-90
2023/03/16 04:46:02;;;;;;;15.82;9.57;;;;;;;-0.11;100.00;100809.59;4977152;28;20101;-92
2023/03/16 04:48:33;;;;;;;16.08;9.52;;;;;;;-0.30;100.00;100777.44;4989020;28;20047;-92
2023/03/16 04:51:05;;;;;;;17.05;9.30;;;;;;;-0.11;100.00;100812.22;4996761;28;20180;-90
2023/03/16 04:53:38;;;;;;;14.75;9.25;;;;;;;-0.14;100.00;100805.25;4993924;28;20056;-90
2023/03/16 04:56:18;;;;;;;16.20;9.25;;;;;;;-0.36;100.00;100783.50;4987685;28;20046;-91
2023/03/16 04:59:04;;;;;;;14.73;9.07;;;;;;;-0.79;100.00;100719.19;5005045;28;20486;-90
2023/03/16 05:01:39;;;;;;;15.57;9.60;;;;;;;-0.26;100.00;100822.56;4980961;28;20042;-90
2023/03/16 05:04:20;;;;;;;16.55;9.82;;;;;;;-0.30;100.00;100813.00;4990349;28;20054;-89
2023/03/16 05:06:50;;;;;;;16.30;9.80;;;;;;;-0.36;100.00;100813.88;4988658;28;20106;-90
2023/03/16 05:09:24;;;;;;;16.60;9.05;;;;;;;-0.44;100.00;100815.56;4991956;28;20038;-90
2023/03/16 05:11:52;;;;;;;18.13;10.50;;;;;;;-0.51;100.00;100809.47;4993373;28;20046;-91
2023/03/16 05:14:21;;;;;;;18.67;9.95;;;;;;;-0.44;100.00;100821.63;4993874;28;20053;-92
2023/03/16 05:17:04;;;;;;;21.25;9.95;;;;;;;-0.51;100.00;100814.66;4977061;28;20078;-91
2023/03/16 05:19:41;;;;;;;16.83;9.88;;;;;;;-0.60;100.00;100809.41;4972998;28;20077;-92
2023/03/16 05:22:10;;;;;;;17.65;9.93;;;;;;;-0.75;100.00;100806.72;5008287;28;20137;-93
2023/03/16 05:24:55;;;;;;;18.02;10.32;;;;;;;-0.90;100.00;100780.66;4992353;28;20098;-92
2023/03/16 05:27:47;;;;;;;17.55;10.43;;;;;;;-1.26;100.00;100730.19;4988747;28;20073;-94
2023/03/16 05:30:18;;;;;;;18.30;10.90;;;;;;;-1.13;100.00;100746.75;4971970;28;20050;-91
2023/03/16 05:32:48;;;;;;;19.50;10.18;;;;;;;-1.00;100.00;100761.53;4980665;28;20066;-93
2023/03/16 05:35:16;;;;;;;18.65;9.85;;;;;;;-0.86;100.00;100783.28;4984387;28;20046;-93
2023/03/16 05:38:02;;;;;;;17.17;9.88;;;;;;;-0.92;100.00;100762.44;4971342;28;20119;-92
2023/03/16 05:40:33;;;;;;;17.83;10.43;;;;;;;-0.80;100.00;100774.66;4982263;28;20046;-92
2023/03/16 05:43:04;;;;;;;17.60;10.05;;;;;;;-0.87;100.00;100750.34;4980647;28;20049;-92
2023/03/16 05:45:42;;;;;;;18.92;10.30;;;;;;;-0.68;100.00;100777.31;5007549;28;20074;-93
2023/03/16 05:48:17;;;;;;;17.23;10.07;;;;;;;-0.93;100.00;100726.03;5008844;28;20034;-94
2023/03/16 05:50:49;;;;;;;18.23;10.35;;;;;;;-0.47;100.00;100794.72;4984004;28;20061;-91
2023/03/16 05:53:27;;;;;;;16.95;10.23;;;;;;;-0.30;100.00;100795.66;4990785;28;20042;-92
2023/03/16 05:56:36;;;;;;;17.60;10.15;;;;;;;-0.50;100.00;100753.97;5005860;28;20054;-92
2023/03/16 05:59:06;;;;;;;17.08;10.77;;;;;;;-0.51;100.00;100730.56;4998810;28;20038;-93
2023/03/16 06:01:46;;;;;;;17.95;10.43;;;;;;;-0.35;100.00;100753.16;4985274;28;20061;-93
2023/03/16 06:04:30;;;;;;;16.40;10.85;;;;;;;-0.26;100.00;100757.50;4991704;28;20054;-92
2023/03/16 06:07:02;;;;;;;20.40;11.05;;;;;;;-0.27;100.00;100745.34;4984580;28;20097;-92
2023/03/16 06:09:33;;;;;;;19.77;11.32;;;;;;;-0.31;100.00;100728.84;5001352;28;20060;-94
2023/03/16 06:12:03;;;;;;;17.48;10.05;;;;;;;0.13;100.00;100794.06;4986752;28;20042;-92
2023/03/16 06:14:50;;;;;;;;;;;;;;;0.17;100.00;100785.34;4992179;28;20050;-92
2023/03/16 06:17:27;;;;;;;16.52;10.27;;;;;;;-0.33;100.00;100699.41;4991934;28;19926;-92
2023/03/16 06:20:16;;;;;;;18.27;11.02;;;;;;;0.25;100.00;100794.06;4987598;28;20150;-91
2023/03/16 06:22:59;;;;;;;17.75;10.80;;;;;;;0.25;100.00;100790.59;4995553;28;20050;-92
2023/03/16 06:25:43;;;;;;;19.70;11.05;;;;;;;0.31;100.00;100799.28;4988673;28;20050;-92
2023/03/16 06:28:38;;;;;;;18.40;11.20;;;;;;;-0.13;100.00;100728.91;4984276;28;20464;-94
2023/03/16 06:31:13;;;;;;;18.13;10.52;;;;;;;0.37;100.00;100792.34;4979486;28;20050;-93
2023/03/16 06:33:55;;;;;;;18.35;11.20;;;;;;;0.54;100.00;100806.25;5005010;28;20042;-93
2023/03/16 06:36:25;;;;;;;19.85;10.60;;;;;;;0.27;100.00;100747.19;4992250;28;20444;-93
2023/03/16 06:39:03;;;;;;;19.40;11.07;;;;;;;0.34;100.00;100748.91;4994504;28;20105;-92
2023/03/16 06:41:31;;;;;;;18.77;11.55;;;;;;;0.74;100.00;100814.94;4999126;28;20098;-92
2023/03/16 06:44:42;;;;;;;19.02;10.75;;;;;;;0.49;100.00;100766.28;5128508;27;20736;-95
2023/03/16 06:47:26;;;;;;;19.63;10.85;;;;;;;0.71;100.00;100788.88;5097183;28;20040;-93
2023/03/16 06:50:31;;;;;;;18.55;11.13;;;;;;;1.04;100.00;100827.94;5087882;28;20040;-94
2023/03/16 06:53:12;;;;;;;17.83;11.05;;;;;;;0.88;100.00;100770.59;5092770;28;20068;-93
2023/03/16 06:56:21;;;;;;;16.45;11.35;;;;;;;1.29;100.00;100820.06;5102439;28;20032;-92
2023/03/16 06:59:07;;;;;;;18.13;11.25;;;;;;;1.21;100.00;100775.75;5106011;28;20041;-93
2023/03/16 07:01:38;;;;;;;18.45;11.65;;;;;;;1.47;100.00;100778.25;5094486;28;20052;-93
2023/03/16 07:04:05;;;;;;;19.27;11.48;;;;;;;1.34;100.00;100725.25;5109110;28;20036;-93
2023/03/16 07:06:36;;;;;;;18.58;10.90;;;;;;;1.81;100.00;100767.66;5105351;28;20047;-93
2023/03/16 07:09:18;;;;;;;17.48;11.70;;;;;;;2.24;100.00;100773.47;5109168;28;20044;-93
2023/03/16 07:11:51;;;;;;;19.42;10.90;;;;;;;2.45;100.00;100755.03;5082673;28;20057;-91
2023/03/16 07:14:33;;;;;;;17.25;10.55;;;;;;;3.00;100.00;100804.19;5084575;28;20029;-93
2023/03/16 07:17:17;;;;;;;18.88;10.77;;;;;;;3.18;100.00;100807.50;5097546;28;20205;-94
2023/03/16 07:20:09;;;;;;;14.90;10.95;;;;;;;3.28;100.00;100812.66;5089779;28;20088;-91
2023/03/16 07:22:44;;;;;;;17.45;10.55;;;;;;;3.37;100.00;100809.94;5098071;28;20044;-94
2023/03/16 07:25:38;;;;;;;17.63;10.65;;;;;;;3.29;100.00;100783.00;5095070;28;20082;-92
2023/03/16 07:28:34;;;;;;;18.63;11.32;;;;;;;3.37;100.00;100763.69;5087435;28;20080;-92
2023/03/16 07:31:43;;;;;;;18.58;10.88;;;;;;;3.90;100.00;100813.66;5091762;28;20049;-92
2023/03/16 07:34:29;;;;;;;16.75;10.38;;;;;;;3.97;100.00;100803.06;5094479;28;20048;-93
2023/03/16 07:37:09;;;;;;;16.42;10.68;;;;;;;3.90;100.00;100775.25;5033101;28;20048;-92
2023/03/16 07:39:39;;;;;;;19.02;10.77;;;;;;;4.11;100.00;100764.44;5048024;28;20397;-91
2023/03/16 07:42:21;;;;;;;17.40;10.48;;;;;;;4.38;100.00;100773.66;5049921;28;20107;-92
2023/03/16 07:44:50;;;;;;;20.25;10.80;;;;;;;4.82;100.00;100816.66;5054473;28;20075;-92
2023/03/16 07:47:23;;;;;;;15.77;10.90;;;;;;;4.87;100.00;100818.31;5067566;28;20117;-91
2023/03/16 07:49:52;;;;;;;;;;;;;;;4.94;100.00;100814.69;5038483;28;20048;-91
2023/03/16 07:52:25;;;;;;;16.58;10.13;;;;;;;4.70;100.00;100765.25;5071053;28;19984;-93
2023/03/16 07:54:56;;;;;;;15.80;10.45;;;;;;;5.06;100.00;100815.34;5055733;28;20030;-94
2023/03/16 07:57:33;;;;;;;17.25;10.65;;;;;;;4.92;100.00;100787.59;5073571;28;20021;-92
2023/03/16 08:00:28;;;;;;;15.13;10.18;;;;;;;5.11;100.00;100798.63;5070071;28;20079;-93
2023/03/16 08:03:12;;;;;;;14.95;10.20;;;;;;;5.12;100.00;100789.88;5067314;28;20072;-91
2023/03/16 08:05:50;;;;;;;14.05;10.25;;;;;;;5.15;100.00;100779.31;5052555;28;20049;-92
2023/03/16 08:08:35;;;;;;;14.95;9.95;;;;;;;5.16;97.86;100749.53;5066077;28;20124;-94
2023/03/16 08:11:22;;;;;;;14.07;9.52;;;;;;;5.49;95.98;100802.31;5071255;28;20041;-92
2023/03/16 08:13:56;;;;;;;16.33;10.00;;;;;;;5.40;96.93;100773.56;5054415;28;20114;-91
2023/03/16 08:16:34;;;;;;;13.45;9.82;;;;;;;5.42;97.43;100763.91;5054045;28;20037;-92
2023/03/16 08:19:04;;;;;;;13.73;9.45;;;;;;;5.20;98.15;100716.19;5043655;28;20057;-91
2023/03/16 08:21:46;;;;;;;14.38;9.98;;;;;;;5.53;94.58;100775.06;5056968;28;20049;-91
2023/03/16 08:24:48;;;;;;;13.90;9.13;;;;;;;5.88;97.56;100792.72;5053505;28;20045;-92
2023/03/16 08:28:01;;;;;;;13.73;9.45;;;;;;;6.24;91.42;100794.59;5055152;28;20087;-91
2023/03/16 08:31:24;;;;;;;13.52;9.15;;;;;;;6.31;86.39;100776.88;5060019;28;20048;-92
2023/03/16 08:34:23;;;;;;;16.02;8.80;;;;;;;6.65;85.99;100782.19;5050635;28;20056;-92
2023/03/16 08:37:00;;;;;;;12.05;8.60;;;;;;;7.19;81.35;100777.28;5051634;28;20056;-93
2023/03/16 08:39:32;;;;;;;13.25;8.23;;;;;;;7.59;76.18;100782.31;5052919;28;20048;-90
2023/03/16 08:42:14;;;;;;;10.73;8.05;;;;;;;7.83;72.49;100775.47;5055113;28;20048;-93
2023/03/16 08:44:59;;;;;;;12.20;8.27;;;;;;;7.15;73.67;100715.06;5057866;28;20059;-91
2023/03/16 08:47:32;;;;;;;11.68;8.35;;;;;;;7.12;87.22;100769.56;5036478;28;20049;-91
2023/03/16 08:50:21;;;;;;;10.27;8.05;;;;;;;6.92;84.29;100778.88;5056065;28;20127;-92
2023/03/16 08:53:01;;;;;;;12.85;9.13;;;;;;;6.63;80.97;100734.00;5040433;28;20044;-94
2023/03/16 08:55:55;;;;;;;12.43;8.98;;;;;;;6.66;81.06;100782.16;5052774;28;20044;-91
2023/03/16 08:58:23;;;;;;;11.45;8.48;;;;;;;6.75;88.00;100767.06;5025804;28;20067;-92
2023/03/16 09:00:59;;;;;;;12.30;8.38;;;;;;;6.44;82.84;100703.81;5061979;28;20041;-93
2023/03/16 09:03:59;;;;;;;10.80;8.02;;;;;;;6.61;82.37;100756.88;5057672;28;20052;-92
2023/03/16 09:06:35;;;;;;;12.70;8.77;;;;;;;6.66;85.05;100762.88;5059967;28;20077;-93
2023/03/16 09:09:14;;;;;;;12.60;9.23;;;;;;;6.71;82.73;100763.63;5066415;28;20099;-94
2023/03/16 09:11:48;;;;;;;13.60;8.27;;;;;;;6.64;82.12;100755.00;5072284;28;20032;-93
2023/03/16 09:14:45;;;;;;;9.55;7.90;;;;;;;6.65;81.29;100750.63;5065086;28;20123;-93
2023/03/16 09:17:29;;;;;;;11.15;8.18;;;;;;;6.73;79.80;100755.69;5054347;28;20104;-93
2023/03/16 09:19:59;;;;;;;15.27;9.10;;;;;;;6.66;79.89;100752.34;5055543;28;20307;-92
2023/03/16 09:22:47;;;;;;;11.15;7.72;;;;;;;6.48;79.78;100697.56;5056180;28;20071;-90
2023/03/16 09:25:31;;;;;;;11.00;8.05;;;;;;;6.95;78.26;100754.22;5055780;28;20060;-92
2023/03/16 09:28:16;;;;;;;11.60;8.00;;;;;;;7.18;76.05;100757.13;5054228;28;20095;-93
2023/03/16 09:31:02;;;;;;;11.27;7.90;;;;;;;7.24;75.42;100740.28;5057922;28;20072;-94
2023/03/16 09:34:00;;;;;;;12.10;8.13;;;;;;;7.35;76.47;100722.41;5055636;28;20037;-94
2023/03/16 09:36:59;;;;;;;9.98;7.05;;;;;;;7.64;73.14;100726.81;5064685;28;20115;-92
2023/03/16 09:40:02;;;;;;;;;;;;;;;7.80;71.83;100736.00;5052957;28;20036;-91
2023/03/16 09:43:14;;;;;;;11.65;8.38;;;;;;;7.82;69.67;100733.31;5069468;28;19915;-93
2023/03/16 09:46:32;;;;;;;9.35;7.55;;;;;;;7.67;69.13;100717.06;5069772;28;20097;-93
2023/03/16 09:49:20;;;;;;;11.38;7.63;;;;;;;7.84;70.27;100735.00;5059457;28;20052;-92
2023/03/16 09:52:07;;;;;;;10.48;7.05;;;;;;;7.74;69.98;100701.91;5054375;28;20049;-94
2023/03/16 09:55:07;;;;;;;11.00;7.53;;;;;;;7.72;69.70;100696.69;5051404;28;20076;-94
2023/03/16 09:58:00;;;;;;;10.10;6.75;;;;;;;7.80;69.04;100698.22;5063189;28;20056;-93
2023/03/16 10:01:37;;;;;;;9.38;7.18;;;;;;;8.06;68.13;100736.06;5047411;28;20045;-94
2023/03/16 10:04:46;;;;;;;11.52;6.72;;;;;;;8.11;68.13;100735.94;5061504;28;20034;-94
2023/03/16 10:08:04;;;;;;;12.57;8.70;;;;;;;7.92;69.90;100690.81;5065995;28;20064;-94
2023/03/16 10:11:25;;;;;;;12.70;6.72;;;;;;;8.35;67.63;100729.88;5073349;28;20064;-95
2023/03/16 10:14:42;;;;;;;9.60;7.38;;;;;;;8.46;65.48;100733.97;5070623;28;20041;-95
2023/03/16 10:20:54;;;;;;;8.88;6.30;;;;;;;8.68;64.04;100733.19;5068446;28;20080;-93
2023/03/16 10:23:40;;;;;;;10.27;6.68;;;;;;;8.99;64.06;100732.13;5061974;28;20114;-94
2023/03/16 10:26:33;;;;;;;8.60;5.90;;;;;;;8.73;62.48;100733.03;5051318;28;20083;-94
2023/03/16 10:29:16;;;;;;;9.13;6.53;;;;;;;8.63;62.81;100723.72;5050877;28;20068;-92
2023/03/16 10:32:18;;;;;;;8.55;6.82;;;;;;;8.57;64.98;100711.56;5075879;28;20054;-93
2023/03/16 10:35:10;;;;;;;9.85;6.70;;;;;;;8.59;62.91;100686.00;5062085;28;20043;-95
2023/03/16 10:38:54;;;;;;;11.95;6.82;;;;;;;8.45;62.95;100661.84;5055597;28;20193;-94
2023/03/16 10:42:38;;;;;;;8.15;6.80;;;;;;;8.66;62.85;100703.34;5014144;28;20458;-94
2023/03/16 10:45:30;;;;;;;8.43;6.30;;;;;;;8.89;62.56;100712.25;4993432;28;20120;-92
2023/03/16 10:48:33;;;;;;;9.98;6.65;;;;;;;8.70;62.86;100652.16;5050894;28;20048;-91
2023/03/16 10:51:30;;;;;;;8.88;6.53;;;;;;;9.11;62.44;100705.31;5056252;28;20136;-93
2023/03/16 10:54:34;;;;;;;8.07;6.32;;;;;;;9.14;62.10;100673.47;5054874;28;20076;-94
2023/03/16 10:57:41;;;;;;;9.80;7.00;;;;;;;9.01;63.37;100661.63;5055440;28;20128;-94
2023/03/16 11:00:35;;;;;;;9.45;6.55;;;;;;;9.21;61.81;100668.81;5047038;28;20045;-92
2023/03/16 11:03:40;;;;;;;9.57;6.32;;;;;;;9.47;60.44;100698.63;5055573;28;20127;-93
2023/03/16 11:06:35;;;;;;;9.88;6.60;;;;;;;9.40;61.02;100668.09;5062786;28;20053;-93
2023/03/16 11:09:50;;;;;;;12.70;6.53;;;;;;;9.64;61.46;100697.13;5046528;28;20055;-93
2023/03/16 11:12:48;;;;;;;8.35;6.32;;;;;;;9.55;61.03;100673.72;5044179;28;20045;-93
2023/03/16 11:15:36;;;;;;;9.70;6.22;;;;;;;9.43;59.91;100636.25;5056911;28;20076;-93
2023/03/16 11:18:44;;;;;;;7.25;6.10;;;;;;;9.66;58.48;100645.94;5054549;28;20064;-91
2023/03/16 11:21:33;;;;;;;8.60;5.85;;;;;;;9.84;58.21;100676.94;5054592;28;20048;-92
2023/03/16 11:24:26;;;;;;;9.68;6.32;;;;;;;9.66;59.66;100645.06;5046567;28;20063;-94
2023/03/16 11:27:18;;;;;;;11.85;6.50;;;;;;;9.79;59.53;100667.47;5063931;28;20041;-93
2023/03/16 11:30:17;;;;;;;7.13;6.03;;;;;;;9.82;59.06;100646.19;5054124;28;20575;-94
2023/03/16 11:33:49;;;;;;;8.43;6.63;;;;;;;9.83;59.26;100669.06;5063179;28;20326;-94
2023/03/16 11:36:55;;;;;;;8.35;6.20;;;;;;;9.75;59.12;100669.38;5030261;28;20067;-93
2023/03/16 11:40:08;;;;;;;9.20;6.20;;;;;;;9.77;59.80;100659.56;5055836;28;20128;-92
2023/03/16 11:43:44;;;;;;;9.40;6.75;;;;;;;9.94;58.38;100648.31;5057260;28;20075;-92
2023/03/16 11:46:40;;;;;;;8.77;5.65;;;;;;;10.08;58.67;100648.63;5066338;28;20539;-94
2023/03/16 11:49:56;;;;;;;7.00;5.47;;;;;;;10.34;57.49;100657.34;5066139;28;20053;-94
2023/03/16 11:53:02;;;;;;;7.72;5.78;;;;;;;10.45;59.18;100652.44;5069065;28;20025;-94
2023/03/16 11:56:44;;;;;;;8.10;5.65;;;;;;;10.57;58.01;100640.44;5076935;28;20052;-95
2023/03/16 12:00:44;;;;;;;7.60;5.90;;;;;;;10.75;55.73;100637.88;5075327;28;20075;-94
2023/03/16 12:04:12;;;;;;;;;;;;;;;10.98;56.04;100622.75;5030785;28;20033;-91
2023/03/16 12:07:32;;;;;;;9.35;5.75;;;;;;;10.81;55.07;100607.63;5075764;28;19916;-93
2023/03/16 12:10:36;;;;;;;7.97;6.35;;;;;;;10.83;56.04;100616.34;5065615;28;20112;-94
2023/03/16 12:14:14;;;;;;;7.05;5.93;;;;;;;10.66;56.89;100603.84;5073982;28;20040;-94
2023/03/16 12:17:24;;;;;;;7.13;5.88;;;;;;;10.82;56.23;100620.78;5072786;28;20028;-92
2023/03/16 12:20:38;;;;;;;7.28;6.13;;;;;;;10.96;57.61;100614.88;5034457;28;20087;-93
2023/03/16 12:23:47;;;;;;;7.55;5.22;;;;;;;11.00;55.68;100605.00;5048040;28;20045;-93
2023/03/16 12:26:40;;;;;;;7.80;5.57;;;;;;;10.81;55.52;100558.16;5054691;28;20022;-92
2023/03/16 12:30:00;;;;;;;7.10;5.93;;;;;;;10.86;55.96;100558.78;5064254;28;20041;-92
2023/03/16 12:33:08;;;;;;;9.98;6.65;;;;;;;11.20;55.70;100604.94;5046682;28;20033;-93
2023/03/16 12:36:36;;;;;;;8.02;6.05;;;;;;;11.02;55.32;100548.34;5063881;28;20036;-95
2023/03/16 12:40:04;;;;;;;8.05;6.13;;;;;;;11.30;55.77;100584.19;5073312;28;20130;-92
2023/03/16 12:43:09;;;;;;;9.35;6.38;;;;;;;11.20;55.61;100581.06;5075311;28;20097;-93
2023/03/16 12:46:06;;;;;;;8.43;5.72;;;;;;;10.88;56.23;100575.47;5068889;28;20076;-95